3MD3 weather

Hoopers Heliport
Ocean City, Maryland, United States

Public forecast

Using degrees Fahrenheit for public forecast. Weather courtesy of forecast.io.

Closest aviation weather report (METAR) to Hoopers Heliport

Closest report is Ocean City Municipal Airport, 0.2 nm (0.3 km) WSW. Retrieved 2019/10/21 05:53 UTC (1 hour ago):

KOXB 210553Z AUTO 36015KT 10SM OVC006 14/13 A2985 RMK AO2 RAB21E36 SLP108 P0000 60013 T01390133 10167 20139 53016

Closest aviation forecast (TAF) to Hoopers Heliport

Closest forecast is Salisbury Ocean City Wicomico Regional Airport, 18.4 nm (34.2 km) W. Retrieved 2019/10/21 06:42 UTC (13 minutes ago):

TAF KSBY 210540Z 2106/2206 35013G20KT P6SM OVC006 FM211600 01008KT P6SM BKN020 FM212000 04006KT P6SM BKN060 FM220500 00000KT P6SM BKN020